Cherry Brook, Connecticut
Current Conditions -  °F | °C
As of 6:13 AM on Friday 28 Nov 2014 (Local Time) from KBDL Reporting Station
Overcast Overcast  
Wind Chill: 25°   Ceiling: 4500
Heat Index: 31°   Visibility: 10mi
Dew Point: 24°   Wind: 6mph
Humidity: 76%   Direction: 320°NW
Pressure: 30.05"   Gusts: NA
Location:  41.8586°N, 72.9136°W
Report Text: KBDL 281113Z 32005KT 10SM FEW029 OVC045 M01/M04 A3005 RMK AO2 T10061044
Loading
Personal Weather Stations






























Interactive Weather Map New forecast layout! Learn more

10-Day Weather Forecast

Advertisements
Track Severe Weather on mobile